Time;durP1;ratioP1;P1;durP2;ratioP2;P2;SDS_P1;SDS_P2;PMS_P1;PMS_P2;Temp;Humidity;BMP_temperature;BMP_pressure;BME280_temperature;BME280_humidity;BME280_pressure;Samples;Min_cycle;Max_cycle;Signal;HPM_P1;HPM_P2
2022/03/08 00:02:12;;;;;;;52.15;29.55;;;;;;;-144.47;100.00;61586.06;5017994;28;20037;-76
2022/03/08 00:04:38;;;;;;;53.20;30.05;;;;;;;-144.47;100.00;61586.06;5021368;28;20705;-75
2022/03/08 00:07:05;;;;;;;52.45;28.73;;;;;;;-144.47;100.00;61586.06;5018502;28;20030;-75
2022/03/08 00:09:30;;;;;;;53.78;29.08;;;;;;;-144.47;100.00;61586.06;5017875;28;20041;-76
2022/03/08 00:11:56;;;;;;;51.33;29.63;;;;;;;-144.47;100.00;61586.06;5019555;28;20038;-76
2022/03/08 00:14:21;;;;;;;53.88;29.98;;;;;;;-144.47;100.00;61586.06;5019036;28;20100;-77
2022/03/08 00:16:47;;;;;;;56.13;31.00;;;;;;;-144.47;100.00;61586.06;5020745;28;20366;-75
2022/03/08 00:19:12;;;;;;;53.85;29.40;;;;;;;-144.47;100.00;61586.06;5017697;28;20033;-76
2022/03/08 00:21:39;;;;;;;57.28;30.17;;;;;;;-144.47;100.00;61586.06;5021330;28;20037;-76
2022/03/08 00:24:05;;;;;;;58.20;30.45;;;;;;;-144.47;100.00;61586.06;5018365;28;20080;-76
2022/03/08 00:26:31;;;;;;;55.92;29.05;;;;;;;-144.47;100.00;61586.06;5020498;28;20451;-76
2022/03/08 00:28:56;;;;;;;52.78;28.65;;;;;;;-144.47;100.00;61586.06;5018134;28;20033;-76
2022/03/08 00:31:22;;;;;;;47.78;29.40;;;;;;;-144.47;100.00;61586.06;4999676;28;20362;-76
2022/03/08 00:33:47;;;;;;;53.92;29.20;;;;;;;-144.47;100.00;61586.06;5021262;28;20041;-77
2022/03/08 00:36:13;;;;;;;51.40;28.38;;;;;;;-144.47;100.00;61586.06;5013346;28;20081;-76
2022/03/08 00:38:38;;;;;;;54.90;30.50;;;;;;;-144.47;100.00;61586.06;5021875;28;20025;-76
2022/03/08 00:41:06;;;;;;;57.63;29.65;;;;;;;-144.47;100.00;61586.06;5024399;28;20048;-76
2022/03/08 00:43:31;;;;;;;55.78;30.30;;;;;;;-144.47;100.00;61586.06;5021752;28;20038;-76
2022/03/08 00:45:57;;;;;;;58.78;31.08;;;;;;;-144.47;100.00;61586.06;5020637;28;20030;-76
2022/03/08 00:48:22;;;;;;;53.90;27.98;;;;;;;-144.47;100.00;61586.06;5022611;28;20529;-76
2022/03/08 00:50:48;;;;;;;58.60;29.52;;;;;;;-144.47;100.00;61586.06;5021745;28;20187;-76
2022/03/08 00:53:14;;;;;;;55.90;28.88;;;;;;;-144.47;100.00;61586.06;5025426;28;20481;-77
2022/03/08 00:55:39;;;;;;;57.17;31.30;;;;;;;-144.47;100.00;61586.06;5015739;28;20383;-77
2022/03/08 00:58:06;;;;;;;53.50;29.77;;;;;;;-144.47;100.00;61586.06;5024029;28;20034;-77
2022/03/08 01:00:37;;;;;;;56.25;30.67;;;;;;;-144.47;100.00;61586.06;5022154;28;20130;-76
2022/03/08 01:03:04;;;;;;;56.20;30.33;;;;;;;-144.47;100.00;61586.06;5021559;28;20052;-77
2022/03/08 01:05:31;;;;;;;53.85;31.00;;;;;;;-144.47;100.00;61586.06;5021597;28;20068;-77
2022/03/08 01:07:58;;;;;;;61.40;31.30;;;;;;;-144.47;100.00;61586.06;5024451;28;20041;-77
2022/03/08 01:10:25;;;;;;;59.92;30.85;;;;;;;-144.47;100.00;61586.06;5022858;28;20068;-77
2022/03/08 01:12:53;;;;;;;52.45;30.98;;;;;;;-144.47;100.00;61586.06;5022498;28;20038;-77
2022/03/08 01:15:20;;;;;;;56.40;31.48;;;;;;;-144.47;100.00;61586.06;5022709;28;20076;-76
2022/03/08 01:17:47;;;;;;;56.45;30.30;;;;;;;-144.47;100.00;61586.06;5020231;28;20376;-76
2022/03/08 01:20:13;;;;;;;62.97;31.73;;;;;;;-144.47;100.00;61586.06;5022496;28;20025;-75
2022/03/08 01:22:39;;;;;;;59.33;31.98;;;;;;;-144.47;100.00;61586.06;5017341;28;20409;-76
2022/03/08 01:25:07;;;;;;;54.63;30.95;;;;;;;-144.47;100.00;61586.06;5026019;28;20021;-77
2022/03/08 01:27:33;;;;;;;54.70;31.13;;;;;;;-144.47;100.00;61586.06;5033318;28;20029;-76
2022/03/08 01:29:59;;;;;;;55.15;30.60;;;;;;;-144.47;100.00;61586.06;5026257;28;20034;-75
2022/03/08 01:32:24;;;;;;;54.88;29.88;;;;;;;-144.47;100.00;61586.06;5021605;28;20710;-75
2022/03/08 01:34:50;;;;;;;55.80;30.40;;;;;;;-144.47;100.00;61586.06;5022573;28;20035;-76
2022/03/08 01:37:16;;;;;;;54.95;29.90;;;;;;;-144.47;100.00;61586.06;5022161;28;20026;-77
2022/03/08 01:39:42;;;;;;;53.85;29.02;;;;;;;-144.47;100.00;61586.06;5016546;28;20022;-78
2022/03/08 01:42:13;;;;;;;52.75;28.98;;;;;;;-144.47;100.00;61586.06;5037266;28;20040;-76
2022/03/08 01:44:40;;;;;;;58.08;30.48;;;;;;;-144.47;100.00;61586.06;5041152;28;20014;-76
2022/03/08 01:47:06;;;;;;;55.40;28.90;;;;;;;-144.47;100.00;61586.06;5032638;28;20144;-77
2022/03/08 01:49:32;;;;;;;51.55;28.70;;;;;;;-144.47;100.00;61586.06;5030663;28;20033;-77
2022/03/08 01:51:57;;;;;;;56.65;29.65;;;;;;;-144.47;100.00;61586.06;5017866;28;20548;-76
2022/03/08 01:54:23;;;;;;;52.58;28.98;;;;;;;-144.47;100.00;61586.06;5020733;28;20036;-76
2022/03/08 01:56:48;;;;;;;54.67;29.38;;;;;;;-144.47;100.00;61586.06;5021481;28;20481;-77
2022/03/08 01:59:14;;;;;;;53.80;29.85;;;;;;;-144.47;100.00;61586.06;5021323;28;20052;-76
2022/03/08 02:01:39;;;;;;;53.33;29.63;;;;;;;-144.47;100.00;61586.06;5013596;28;20036;-76
2022/03/08 02:04:05;;;;;;;55.65;28.17;;;;;;;-144.47;100.00;61586.06;5018475;28;20482;-77
2022/03/08 02:06:31;;;;;;;52.03;28.67;;;;;;;-144.47;100.00;61586.06;5022038;28;20478;-76
2022/03/08 02:08:57;;;;;;;51.53;28.50;;;;;;;-144.47;100.00;61586.06;5021988;28;20037;-75
2022/03/08 02:11:23;;;;;;;46.85;27.75;;;;;;;-144.47;100.00;61586.06;5020023;28;20110;-76
2022/03/08 02:13:49;;;;;;;53.83;28.15;;;;;;;-144.47;100.00;61586.06;5020946;28;20057;-76
2022/03/08 02:16:14;;;;;;;55.40;29.00;;;;;;;-144.47;100.00;61586.06;5022852;28;20069;-76
2022/03/08 02:18:40;;;;;;;51.92;28.55;;;;;;;-144.47;100.00;61586.06;5020473;28;20118;-76
2022/03/08 02:21:07;;;;;;;52.40;29.08;;;;;;;-144.47;100.00;61586.06;5021464;28;20026;-77
2022/03/08 02:23:33;;;;;;;58.15;28.73;;;;;;;-144.47;100.00;61586.06;5021016;28;20393;-76
2022/03/08 02:25:59;;;;;;;48.92;27.42;;;;;;;-144.47;100.00;61586.06;5021906;28;20037;-76
2022/03/08 02:28:25;;;;;;;56.65;29.70;;;;;;;-144.47;100.00;61586.06;5021560;28;20030;-78
2022/03/08 02:30:50;;;;;;;48.38;28.77;;;;;;;-144.47;100.00;61586.06;5023489;28;20056;-77
2022/03/08 02:33:16;;;;;;;52.30;28.00;;;;;;;-144.47;100.00;61586.06;5019552;28;20036;-77
2022/03/08 02:35:41;;;;;;;54.60;29.65;;;;;;;-144.47;100.00;61586.06;5019487;28;20034;-77
2022/03/08 02:38:07;;;;;;;51.63;27.33;;;;;;;-144.47;100.00;61586.06;5022724;28;20137;-76
2022/03/08 02:40:36;;;;;;;51.78;29.15;;;;;;;-144.47;100.00;61586.06;5020821;28;20120;-77
2022/03/08 02:43:04;;;;;;;49.75;29.73;;;;;;;-144.47;100.00;61586.06;5021697;28;20482;-77
2022/03/08 02:45:30;;;;;;;50.70;29.10;;;;;;;-144.47;100.00;61586.06;5018599;28;20073;-76
2022/03/08 02:47:55;;;;;;;48.75;27.95;;;;;;;-144.47;100.00;61586.06;5021804;28;20140;-75
2022/03/08 02:50:22;;;;;;;58.92;29.65;;;;;;;-144.47;100.00;61586.06;5019941;28;20017;-76
2022/03/08 02:52:51;;;;;;;51.75;28.17;;;;;;;-144.47;100.00;61586.06;5023234;28;20037;-75
2022/03/08 02:55:18;;;;;;;55.17;29.40;;;;;;;-144.47;100.00;61586.06;5019761;28;20034;-76
2022/03/08 02:57:43;;;;;;;55.97;29.13;;;;;;;-144.47;100.00;61586.06;5023012;28;20050;-75
2022/03/08 03:00:12;;;;;;;47.83;27.25;;;;;;;-144.47;100.00;61586.06;5022366;28;20136;-74
2022/03/08 03:02:38;;;;;;;54.55;28.08;;;;;;;-144.47;100.00;61586.06;5022490;28;20053;-75
2022/03/08 03:05:03;;;;;;;54.03;29.17;;;;;;;-144.47;100.00;61586.06;5020000;28;20501;-75
2022/03/08 03:07:29;;;;;;;57.15;27.88;;;;;;;-144.47;100.00;61586.06;5020575;28;20026;-75
2022/03/08 03:09:56;;;;;;;47.90;27.15;;;;;;;-144.47;100.00;61586.06;5027327;28;20057;-78
2022/03/08 03:12:22;;;;;;;52.85;28.30;;;;;;;-144.47;100.00;61586.06;5032663;28;20052;-75
2022/03/08 03:14:47;;;;;;;53.58;27.70;;;;;;;-144.47;100.00;61586.06;5030760;28;20068;-76
2022/03/08 03:17:12;;;;;;;57.60;29.15;;;;;;;-144.47;100.00;61586.06;5035141;28;20025;-77
2022/03/08 03:19:38;;;;;;;54.88;29.42;;;;;;;-144.47;100.00;61586.06;5031339;28;20153;-76
2022/03/08 03:22:04;;;;;;;59.47;29.25;;;;;;;-144.47;100.00;61586.06;5025514;28;20049;-76
2022/03/08 03:24:30;;;;;;;54.08;29.70;;;;;;;-144.47;100.00;61586.06;5018484;28;20087;-76
2022/03/08 03:26:55;;;;;;;55.67;29.92;;;;;;;-144.47;100.00;61586.06;5017446;28;20061;-76
2022/03/08 03:29:21;;;;;;;57.33;30.38;;;;;;;-144.47;100.00;61586.06;5021578;28;20097;-76
2022/03/08 03:31:46;;;;;;;56.10;29.95;;;;;;;-144.47;100.00;61586.06;5021716;28;20126;-76
2022/03/08 03:34:12;;;;;;;57.58;29.65;;;;;;;-144.47;100.00;61586.06;5022596;28;20112;-76
2022/03/08 03:36:37;;;;;;;53.33;29.85;;;;;;;-144.47;100.00;61586.06;5022850;28;20060;-78
2022/03/08 03:39:06;;;;;;;57.97;30.70;;;;;;;-144.47;100.00;61586.06;5027886;28;20338;-77
2022/03/08 03:41:32;;;;;;;55.50;30.77;;;;;;;-144.47;100.00;61586.06;5025147;28;20082;-77
2022/03/08 03:43:58;;;;;;;56.85;30.10;;;;;;;-144.47;100.00;61586.06;5027716;28;20117;-78
2022/03/08 03:46:23;;;;;;;57.85;32.22;;;;;;;-144.47;100.00;61586.06;5026879;28;20037;-77
2022/03/08 03:48:49;;;;;;;59.67;31.75;;;;;;;-144.47;100.00;61586.06;5023213;28;20038;-77
2022/03/08 03:51:16;;;;;;;59.95;31.27;;;;;;;-144.47;100.00;61586.06;5021564;28;20087;-77
2022/03/08 03:53:43;;;;;;;59.95;30.10;;;;;;;-144.47;100.00;61586.06;5021726;28;20081;-77
2022/03/08 03:56:09;;;;;;;63.00;32.47;;;;;;;-144.47;100.00;61586.06;5019421;28;20040;-77
2022/03/08 03:58:34;;;;;;;56.38;29.75;;;;;;;-144.47;100.00;61586.06;5017555;28;20037;-76
2022/03/08 04:01:00;;;;;;;57.67;31.08;;;;;;;-144.47;100.00;61586.06;5022718;28;20398;-77
2022/03/08 04:03:26;;;;;;;61.13;33.05;;;;;;;-144.47;100.00;61586.06;5017371;28;20037;-77
2022/03/08 04:05:51;;;;;;;58.58;31.33;;;;;;;-144.47;100.00;61586.06;5021348;28;20087;-77
2022/03/08 04:08:20;;;;;;;59.10;29.80;;;;;;;-144.47;100.00;61586.06;5021781;28;20484;-77
2022/03/08 04:10:50;;;;;;;51.47;30.13;;;;;;;-144.47;100.00;61586.06;5018426;28;20030;-77
2022/03/08 04:13:16;;;;;;;61.40;30.30;;;;;;;-144.47;100.00;61586.06;5020635;28;20037;-77
2022/03/08 04:15:43;;;;;;;65.00;31.10;;;;;;;-144.47;100.00;61586.06;5019710;28;20065;-76
2022/03/08 04:18:09;;;;;;;61.00;30.90;;;;;;;-144.47;100.00;61586.06;5022552;28;20033;-77
2022/03/08 04:20:34;;;;;;;58.17;30.65;;;;;;;-144.47;100.00;61586.06;5022301;28;20111;-76
2022/03/08 04:23:00;;;;;;;57.25;31.40;;;;;;;-144.47;100.00;61586.06;5021683;28;20454;-76
2022/03/08 04:25:25;;;;;;;57.67;31.65;;;;;;;-144.47;100.00;61586.06;5023051;28;20592;-76
2022/03/08 04:27:51;;;;;;;55.00;28.80;;;;;;;-144.47;100.00;61586.06;5021502;28;20041;-77
2022/03/08 04:30:17;;;;;;;55.63;30.23;;;;;;;-144.47;100.00;61586.06;5024487;28;20433;-76
2022/03/08 04:32:42;;;;;;;63.50;31.17;;;;;;;-144.47;100.00;61586.06;5025150;28;20033;-77
2022/03/08 04:35:08;;;;;;;56.90;29.92;;;;;;;-144.47;100.00;61586.06;5024836;28;20022;-76
2022/03/08 04:37:34;;;;;;;55.03;30.02;;;;;;;-144.47;100.00;61586.06;5022231;28;20412;-76
2022/03/08 04:40:00;;;;;;;62.25;29.98;;;;;;;-144.47;100.00;61586.06;5021109;28;20044;-76
2022/03/08 04:42:26;;;;;;;58.65;31.13;;;;;;;-144.47;100.00;61586.06;5023158;28;20120;-76
2022/03/08 04:44:52;;;;;;;52.47;28.55;;;;;;;-144.47;100.00;61586.06;5023585;28;20125;-76
2022/03/08 04:47:17;;;;;;;53.75;28.23;;;;;;;-144.47;100.00;61586.06;5023866;28;20088;-76
2022/03/08 04:49:43;;;;;;;52.83;28.33;;;;;;;-144.47;100.00;61586.06;5021540;28;20531;-76
2022/03/08 04:52:09;;;;;;;56.35;29.77;;;;;;;-144.47;100.00;61586.06;5024488;28;20042;-76
2022/03/08 04:54:34;;;;;;;56.28;31.40;;;;;;;-144.47;100.00;61586.06;5025385;28;20445;-76
2022/03/08 04:57:00;;;;;;;60.08;30.05;;;;;;;-144.47;100.00;61586.06;5023155;28;20052;-77
2022/03/08 04:59:25;;;;;;;54.28;29.30;;;;;;;-144.47;100.00;61586.06;5021396;28;20068;-77
2022/03/08 05:01:51;;;;;;;55.17;29.85;;;;;;;-144.47;100.00;61586.06;5023863;28;20500;-76
2022/03/08 05:04:16;;;;;;;57.70;30.42;;;;;;;-144.47;100.00;61586.06;5020265;28;20033;-75
2022/03/08 05:06:42;;;;;;;60.10;30.45;;;;;;;-144.47;100.00;61586.06;5024080;28;20029;-76
2022/03/08 05:09:08;;;;;;;57.65;29.60;;;;;;;-144.47;100.00;61586.06;5020759;28;20044;-75
2022/03/08 05:11:33;;;;;;;57.55;30.02;;;;;;;-144.47;100.00;61586.06;5023231;28;20034;-77
2022/03/08 05:13:58;;;;;;;56.97;31.60;;;;;;;-144.47;100.00;61586.06;5022539;28;20057;-76
2022/03/08 05:16:24;;;;;;;54.53;29.33;;;;;;;-144.47;100.00;61586.06;5030934;28;20037;-76
2022/03/08 05:18:50;;;;;;;58.72;31.83;;;;;;;-144.47;100.00;61586.06;5019217;28;20041;-76
2022/03/08 05:21:15;;;;;;;58.65;30.02;;;;;;;-144.47;100.00;61586.06;5041841;28;20064;-76
2022/03/08 05:23:41;;;;;;;53.47;29.85;;;;;;;-144.47;100.00;61586.06;5043502;28;20237;-76
2022/03/08 05:26:07;;;;;;;53.90;29.38;;;;;;;-144.47;100.00;61586.06;5028737;28;20101;-76
2022/03/08 05:28:32;;;;;;;55.40;29.25;;;;;;;-144.47;100.00;61586.06;5031782;28;20066;-76
2022/03/08 05:30:58;;;;;;;56.70;29.45;;;;;;;-144.47;100.00;61586.06;5024890;28;20053;-77
2022/03/08 05:33:24;;;;;;;54.83;29.05;;;;;;;-144.47;100.00;61586.06;5021810;28;20049;-76
2022/03/08 05:35:50;;;;;;;57.33;30.73;;;;;;;-144.47;100.00;61586.06;5023655;28;20175;-77
2022/03/08 05:38:16;;;;;;;59.70;30.80;;;;;;;-144.47;100.00;61586.06;5024475;28;20444;-76
2022/03/08 05:40:42;;;;;;;51.83;30.00;;;;;;;-144.47;100.00;61586.06;5020463;28;20070;-77
2022/03/08 05:43:07;;;;;;;54.50;29.90;;;;;;;-144.47;100.00;61586.06;5023049;28;20135;-76
2022/03/08 05:45:33;;;;;;;59.58;31.55;;;;;;;-144.47;100.00;61586.06;5020498;28;20060;-75
2022/03/08 05:47:59;;;;;;;61.28;32.10;;;;;;;-144.47;100.00;61586.06;5021894;28;20390;-75
2022/03/08 05:50:25;;;;;;;58.75;29.70;;;;;;;-144.47;100.00;61586.06;5020293;28;20025;-75
2022/03/08 05:52:50;;;;;;;58.28;30.05;;;;;;;-144.47;100.00;61586.06;5020383;28;20041;-76
2022/03/08 05:55:16;;;;;;;55.47;30.83;;;;;;;-144.47;100.00;61586.06;5023240;28;20034;-77
2022/03/08 05:57:41;;;;;;;60.33;32.08;;;;;;;-144.47;100.00;61586.06;5020431;28;20029;-77
2022/03/08 06:00:08;;;;;;;54.08;29.95;;;;;;;-144.47;100.00;61586.06;5026858;28;20099;-77
2022/03/08 06:02:39;;;;;;;62.47;31.52;;;;;;;-144.47;100.00;61586.06;5020254;28;20052;-76
2022/03/08 06:05:05;;;;;;;59.75;30.52;;;;;;;-144.47;100.00;61586.06;5022366;28;20049;-77
2022/03/08 06:07:31;;;;;;;57.00;29.42;;;;;;;-144.47;100.00;61586.06;5021744;28;20057;-77
2022/03/08 06:09:56;;;;;;;55.63;31.45;;;;;;;-144.47;100.00;61586.06;5020991;28;20026;-74
2022/03/08 06:12:22;;;;;;;60.13;32.05;;;;;;;-144.47;100.00;61586.06;5021428;28;20486;-74
2022/03/08 06:14:47;;;;;;;60.40;29.52;;;;;;;-144.47;100.00;61586.06;5016838;28;20065;-72
2022/03/08 06:17:13;;;;;;;57.83;31.02;;;;;;;-144.47;100.00;61586.06;5022700;28;20036;-75
2022/03/08 06:19:38;;;;;;;58.13;31.23;;;;;;;-144.47;100.00;61586.06;5019791;28;20025;-74
2022/03/08 06:22:04;;;;;;;55.80;30.65;;;;;;;-144.47;100.00;61586.06;5021459;28;20038;-75
2022/03/08 06:24:30;;;;;;;57.45;30.40;;;;;;;-144.47;100.00;61586.06;5021050;28;20029;-75
2022/03/08 06:26:55;;;;;;;64.53;31.23;;;;;;;-144.47;100.00;61586.06;5024492;28;20040;-76
2022/03/08 06:29:21;;;;;;;65.05;32.20;;;;;;;-144.47;100.00;61586.06;5030722;28;20063;-74
2022/03/08 06:31:46;;;;;;;60.17;32.05;;;;;;;-144.47;100.00;61586.06;5032846;28;20038;-76
2022/03/08 06:34:12;;;;;;;59.72;31.50;;;;;;;-144.47;100.00;61586.06;4683958;28;9999905;-75
2022/03/08 06:36:42;;;;;;;60.30;32.53;;;;;;;-144.47;100.00;61586.06;5034468;28;20037;-75
2022/03/08 06:39:08;;;;;;;57.80;32.05;;;;;;;-144.47;100.00;61586.06;5030236;28;20450;-75
2022/03/08 06:41:33;;;;;;;63.42;32.88;;;;;;;-144.47;100.00;61586.06;5024240;28;20052;-76
2022/03/08 06:44:00;;;;;;;61.03;32.40;;;;;;;-144.47;100.00;61586.06;5024552;28;20057;-75
2022/03/08 06:46:26;;;;;;;63.00;32.45;;;;;;;-144.47;100.00;61586.06;5024741;28;20137;-75
2022/03/08 06:48:51;;;;;;;63.55;32.67;;;;;;;-144.47;100.00;61586.06;5025705;28;20473;-75
2022/03/08 06:51:17;;;;;;;63.83;33.05;;;;;;;-144.47;100.00;61586.06;5023993;28;20057;-75
2022/03/08 06:53:42;;;;;;;58.88;32.00;;;;;;;-144.47;100.00;61586.06;5028316;28;20045;-76
2022/03/08 06:56:08;;;;;;;61.38;31.83;;;;;;;-144.47;100.00;61586.06;5025976;28;20145;-75
2022/03/08 06:58:33;;;;;;;64.47;32.53;;;;;;;-144.47;100.00;61586.06;5028986;28;20144;-74
2022/03/08 07:00:59;;;;;;;;;;;;;;;-144.47;100.00;61586.06;4332604;28;10020684;-75
2022/03/08 07:03:24;;;;;;;62.80;31.40;;;;;;;-144.47;100.00;61586.06;5023110;28;19939;-75
2022/03/08 07:05:50;;;;;;;61.40;32.88;;;;;;;-144.47;100.00;61586.06;5026573;28;20036;-74
2022/03/08 07:08:15;;;;;;;62.00;32.28;;;;;;;-144.47;100.00;61586.06;5030596;28;20057;-75
2022/03/08 07:10:41;;;;;;;66.13;35.15;;;;;;;-144.47;100.00;61586.06;5023917;28;20036;-74
2022/03/08 07:13:06;;;;;;;59.00;32.40;;;;;;;-144.47;100.00;61586.06;5024576;28;20076;-74
2022/03/08 07:15:33;;;;;;;56.67;31.40;;;;;;;-144.47;100.00;61586.06;5025793;28;20101;-74
2022/03/08 07:17:58;;;;;;;63.17;32.35;;;;;;;-144.47;100.00;61586.06;5028184;28;20389;-75
2022/03/08 07:20:24;;;;;;;66.57;35.55;;;;;;;-144.47;100.00;61586.06;5028770;28;20041;-75
2022/03/08 07:22:49;;;;;;;55.03;32.13;;;;;;;-144.47;100.00;61586.06;5028124;28;20049;-75
2022/03/08 07:25:16;;;;;;;64.95;34.53;;;;;;;-144.47;100.00;61586.06;5019777;28;20565;-73
2022/03/08 07:27:42;;;;;;;67.93;33.30;;;;;;;-144.47;100.00;61586.06;5033764;28;20057;-75
2022/03/08 07:30:10;;;;;;;60.53;32.50;;;;;;;-144.47;100.00;61586.06;5024953;28;20034;-75
2022/03/08 07:32:36;;;;;;;65.47;35.15;;;;;;;-144.47;100.00;61586.06;5022007;28;20436;-74
2022/03/08 07:35:04;;;;;;;64.72;33.03;;;;;;;-144.47;100.00;61586.06;5019686;28;20037;-74
2022/03/08 07:37:37;;;;;;;64.70;33.88;;;;;;;-144.47;100.00;61586.06;5020469;28;20041;-74
2022/03/08 07:40:05;;;;;;;59.63;32.50;;;;;;;-144.47;100.00;61586.06;5019105;28;20080;-74
2022/03/08 07:42:31;;;;;;;59.70;32.97;;;;;;;-144.47;100.00;61586.06;5020447;28;20022;-75
2022/03/08 07:44:57;;;;;;;60.67;34.00;;;;;;;-144.47;100.00;61586.06;5019988;28;20042;-76
2022/03/08 07:47:22;;;;;;;60.08;34.28;;;;;;;-144.47;100.00;61586.06;5018634;28;20040;-75
2022/03/08 07:49:48;;;;;;;64.95;34.50;;;;;;;-144.47;100.00;61586.06;5021167;28;20040;-75
2022/03/08 07:52:13;;;;;;;58.58;33.38;;;;;;;-144.47;100.00;61586.06;5018033;28;20046;-76
2022/03/08 07:54:40;;;;;;;63.88;34.25;;;;;;;-144.47;100.00;61586.06;5024895;28;20061;-75
2022/03/08 07:57:06;;;;;;;65.07;34.92;;;;;;;-144.47;100.00;61586.06;5018632;28;20124;-75
2022/03/08 07:59:31;;;;;;;62.80;34.17;;;;;;;-144.47;100.00;61586.06;5022023;28;20121;-73
2022/03/08 08:01:58;;;;;;;67.30;34.60;;;;;;;-144.47;100.00;61586.06;5023076;28;20048;-73
2022/03/08 08:04:23;;;;;;;59.00;33.30;;;;;;;-144.47;100.00;61586.06;5018087;28;20088;-72
2022/03/08 08:06:49;;;;;;;65.25;35.88;;;;;;;-144.47;100.00;61586.06;5020188;28;20045;-70
2022/03/08 08:09:15;;;;;;;63.05;32.85;;;;;;;-144.47;100.00;61586.06;5018629;28;20041;-73
2022/03/08 08:11:40;;;;;;;65.05;34.70;;;;;;;-144.47;100.00;61586.06;5019809;28;20029;-73
2022/03/08 08:14:06;;;;;;;64.90;34.85;;;;;;;-144.47;100.00;61586.06;5023366;28;20430;-74
2022/03/08 08:16:31;;;;;;;65.35;34.38;;;;;;;-144.47;100.00;61586.06;5021683;28;20470;-71
2022/03/08 08:19:00;;;;;;;59.53;33.53;;;;;;;-144.47;100.00;61586.06;4666558;28;10000462;-72
2022/03/08 08:21:26;;;;;;;63.58;33.50;;;;;;;-144.47;100.00;61586.06;5015136;28;20808;-72
2022/03/08 08:23:51;;;;;;;69.53;35.97;;;;;;;-144.47;100.00;61586.06;5017858;28;20604;-72
2022/03/08 08:26:17;;;;;;;64.15;34.58;;;;;;;-144.47;100.00;61586.06;5015782;28;20113;-72
2022/03/08 08:28:42;;;;;;;60.03;33.35;;;;;;;-144.47;100.00;61586.06;5015048;28;20079;-71
2022/03/08 08:31:08;;;;;;;66.75;36.08;;;;;;;-144.47;100.00;61586.06;5012880;28;20029;-72
2022/03/08 08:33:34;;;;;;;57.95;32.65;;;;;;;-144.47;100.00;61586.06;5018286;28;20037;-72
2022/03/08 08:36:01;;;;;;;63.45;34.47;;;;;;;-144.47;100.00;61586.06;5021480;28;20477;-73
2022/03/08 08:38:26;;;;;;;64.03;34.00;;;;;;;-144.47;100.00;61586.06;5031970;28;20045;-74
2022/03/08 08:40:52;;;;;;;71.65;37.22;;;;;;;-144.47;100.00;61586.06;5022431;28;20398;-72
2022/03/08 08:43:18;;;;;;;64.53;34.15;;;;;;;-144.47;100.00;61586.06;5028987;28;20033;-73
2022/03/08 08:45:43;;;;;;;65.13;36.15;;;;;;;-144.47;100.00;61586.06;5019415;28;20137;-73
2022/03/08 08:48:09;;;;;;;76.35;35.47;;;;;;;-144.47;100.00;61586.06;5025551;28;20033;-73
2022/03/08 08:50:36;;;;;;;71.63;37.65;;;;;;;-144.47;100.00;61586.06;5024349;28;20046;-74
2022/03/08 08:53:02;;;;;;;71.30;36.60;;;;;;;-144.47;100.00;61586.06;5029250;28;20034;-74
2022/03/08 08:55:28;;;;;;;70.47;37.78;;;;;;;-144.47;100.00;61586.06;5018291;28;20116;-75
2022/03/08 08:57:53;;;;;;;77.60;38.92;;;;;;;-144.47;100.00;61586.06;5019702;28;20125;-74
2022/03/08 09:00:19;;;;;;;79.50;38.00;;;;;;;-144.47;100.00;61586.06;5023156;28;20032;-74
2022/03/08 09:02:45;;;;;;;74.16;35.37;;;;;;;-144.47;100.00;61586.06;4666063;28;10000748;-73
2022/03/08 09:05:12;;;;;;;70.10;36.42;;;;;;;-144.47;100.00;61586.06;5011689;28;20129;-73
2022/03/08 09:07:39;;;;;;;67.00;35.50;;;;;;;-144.47;100.00;61586.06;5017020;28;20052;-73
2022/03/08 09:10:05;;;;;;;66.45;34.78;;;;;;;-144.47;100.00;61586.06;5019574;28;20041;-76
2022/03/08 09:12:31;;;;;;;68.20;37.55;;;;;;;-144.47;100.00;61586.06;5017008;28;20541;-72
2022/03/08 09:14:57;;;;;;;64.07;35.53;;;;;;;-144.47;100.00;61586.06;5017849;28;20117;-73
2022/03/08 09:17:22;;;;;;;66.75;34.22;;;;;;;-144.47;100.00;61586.06;5016621;28;20026;-72
2022/03/08 09:19:48;;;;;;;62.10;35.90;;;;;;;-144.47;100.00;61586.06;5017401;28;20061;-73
2022/03/08 09:22:14;;;;;;;63.00;35.45;;;;;;;-144.47;100.00;61586.06;5016217;28;20044;-75
2022/03/08 09:24:40;;;;;;;62.13;34.90;;;;;;;-144.47;100.00;61586.06;5016209;28;20401;-72
2022/03/08 09:27:06;;;;;;;76.68;35.53;;;;;;;-144.47;100.00;61586.06;5015456;28;20034;-73
2022/03/08 09:29:32;;;;;;;72.28;37.17;;;;;;;-144.47;100.00;61586.06;5017297;28;20034;-74
2022/03/08 09:31:57;;;;;;;67.65;36.97;;;;;;;-144.47;100.00;61586.06;5016614;28;20041;-74
2022/03/08 09:34:23;;;;;;;60.72;35.35;;;;;;;-144.47;100.00;61586.06;5015809;28;20026;-73
2022/03/08 09:36:48;;;;;;;73.07;36.20;;;;;;;-144.47;100.00;61586.06;5015736;28;20188;-75
2022/03/08 09:39:16;;;;;;;64.00;36.92;;;;;;;-144.47;100.00;61586.06;5025570;28;20512;-75
2022/03/08 09:41:42;;;;;;;63.22;36.55;;;;;;;-144.47;100.00;61586.06;5015116;28;20103;-74
2022/03/08 09:44:12;;;;;;;64.85;35.60;;;;;;;-144.47;100.00;61586.06;5020419;28;20506;-72
2022/03/08 09:46:38;;;;;;;;;;;;;;;-144.47;100.00;61586.06;5016875;28;20037;-71
2022/03/08 09:49:03;;;;;;;61.50;34.78;;;;;;;-144.47;100.00;61586.06;5017717;28;19921;-72
2022/03/08 09:51:29;;;;;;;65.03;36.17;;;;;;;-144.47;100.00;61586.06;5018368;28;20119;-72
2022/03/08 09:53:55;;;;;;;61.20;35.95;;;;;;;-144.47;100.00;61586.06;5024524;28;20038;-72
2022/03/08 09:56:20;;;;;;;66.82;35.72;;;;;;;-144.47;100.00;61586.06;5017719;28;20029;-72
2022/03/08 09:58:47;;;;;;;65.93;34.42;;;;;;;-144.47;100.00;61586.06;5018812;28;20041;-72
2022/03/08 10:01:12;;;;;;;66.68;35.63;;;;;;;-144.47;100.00;61586.06;5018436;28;20362;-72
2022/03/08 10:03:40;;;;;;;56.55;33.55;;;;;;;-144.47;100.00;61586.06;5020653;28;20026;-73
2022/03/08 10:06:08;;;;;;;61.50;36.25;;;;;;;-144.47;100.00;61586.06;5019620;28;20064;-71
2022/03/08 10:08:34;;;;;;;59.90;33.85;;;;;;;-144.47;100.00;61586.06;5016482;28;20059;-71
2022/03/08 10:11:03;;;;;;;59.47;33.30;;;;;;;-144.47;100.00;61586.06;5016239;28;20052;-71
2022/03/08 10:13:35;;;;;;;55.03;32.72;;;;;;;-144.47;100.00;61586.06;5014737;28;20041;-72
2022/03/08 10:16:12;;;;;;;59.72;32.63;;;;;;;-144.47;100.00;61586.06;5019364;28;20042;-72
2022/03/08 10:18:46;;;;;;;55.17;33.45;;;;;;;-144.47;100.00;61586.06;5017493;28;20036;-71
2022/03/08 10:21:26;;;;;;;54.15;30.85;;;;;;;-144.47;100.00;61586.06;5017131;28;20125;-71
2022/03/08 10:23:52;;;;;;;54.30;31.90;;;;;;;-144.47;100.00;61586.06;5013496;28;20030;-72
2022/03/08 10:26:19;;;;;;;47.80;29.55;;;;;;;-144.47;100.00;61586.06;5017499;28;20280;-71
2022/03/08 10:28:46;;;;;;;52.50;31.48;;;;;;;-144.47;100.00;61586.06;5016535;28;20566;-70
2022/03/08 10:31:14;;;;;;;60.10;31.88;;;;;;;-144.47;100.00;61586.06;5016896;28;20040;-70
2022/03/08 10:33:40;;;;;;;47.55;31.17;;;;;;;-144.47;100.00;61586.06;5021804;28;20036;-70
2022/03/08 10:36:16;;;;;;;52.13;31.00;;;;;;;-144.47;100.00;61586.06;5019692;28;20452;-72
2022/03/08 10:39:06;;;;;;;51.40;30.17;;;;;;;-144.47;100.00;61586.06;5020815;28;20078;-71
2022/03/08 10:41:32;;;;;;;47.53;31.23;;;;;;;-144.47;100.00;61586.06;5021759;28;20714;-72
2022/03/08 10:43:58;;;;;;;55.92;32.50;;;;;;;-144.47;100.00;61586.06;5024790;28;20029;-71
2022/03/08 10:46:25;;;;;;;51.78;31.80;;;;;;;-144.47;100.00;61586.06;5020195;28;20052;-71
2022/03/08 10:48:54;;;;;;;54.42;32.20;;;;;;;-144.47;100.00;61586.06;5038076;28;20038;-74
2022/03/08 10:51:20;;;;;;;54.13;32.97;;;;;;;-144.47;100.00;61586.06;5021754;28;20045;-75